sensor_id;sensor_type;location;lat;lon;timestamp;temperature;humidity
67870;DHT22;54673;52.262;6.830;2024-03-23T00:55:33;9.00;99.90
67870;DHT22;54673;52.262;6.830;2024-03-23T00:57:58;9.00;99.90
67870;DHT22;54673;52.262;6.830;2024-03-23T01:00:24;9.00;99.90
67870;DHT22;54673;52.262;6.830;2024-03-23T01:02:49;9.00;99.90
67870;DHT22;54673;52.262;6.830;2024-03-23T01:05:15;9.60;99.90
67870;DHT22;54673;52.262;6.830;2024-03-23T01:07:40;9.00;99.90
67870;DHT22;54673;52.262;6.830;2024-03-23T01:10:06;9.00;99.90
67870;DHT22;54673;52.262;6.830;2024-03-23T01:12:32;9.00;99.90
67870;DHT22;54673;52.262;6.830;2024-03-23T01:14:57;8.90;99.90
67870;DHT22;54673;52.262;6.830;2024-03-23T01:17:23;8.90;99.90
67870;DHT22;54673;52.262;6.830;2024-03-23T01:19:49;9.10;99.90
67870;DHT22;54673;52.262;6.830;2024-03-23T01:22:14;8.50;99.90
67870;DHT22;54673;52.262;6.830;2024-03-23T01:24:40;8.90;99.90
67870;DHT22;54673;52.262;6.830;2024-03-23T01:27:06;8.90;99.90
67870;DHT22;54673;52.262;6.830;2024-03-23T01:29:31;8.90;99.90
67870;DHT22;54673;52.262;6.830;2024-03-23T01:31:57;9.20;99.90
67870;DHT22;54673;52.262;6.830;2024-03-23T01:34:22;8.90;99.90
67870;DHT22;54673;52.262;6.830;2024-03-23T01:36:50;8.80;99.90
67870;DHT22;54673;52.262;6.830;2024-03-23T01:39:16;8.80;99.90
67870;DHT22;54673;52.262;6.830;2024-03-23T01:41:42;9.20;99.90
67870;DHT22;54673;52.262;6.830;2024-03-23T01:44:09;8.80;99.90
67870;DHT22;54673;52.262;6.830;2024-03-23T01:46:36;8.80;99.90
67870;DHT22;54673;52.262;6.830;2024-03-23T01:49:02;8.80;99.90
67870;DHT22;54673;52.262;6.830;2024-03-23T01:51:29;9.50;99.90
67870;DHT22;54673;52.262;6.830;2024-03-23T01:53:56;8.90;99.90
67870;DHT22;54673;52.262;6.830;2024-03-23T01:56:22;8.80;99.90
67870;DHT22;54673;52.262;6.830;2024-03-23T01:58:47;8.70;99.90
67870;DHT22;54673;52.262;6.830;2024-03-23T02:01:13;8.70;99.90
67870;DHT22;54673;52.262;6.830;2024-03-23T02:03:39;8.70;99.90
67870;DHT22;54673;52.262;6.830;2024-03-23T02:06:05;8.70;99.90
67870;DHT22;54673;52.262;6.830;2024-03-23T02:08:32;8.70;99.90
67870;DHT22;54673;52.262;6.830;2024-03-23T02:10:58;8.80;99.90
67870;DHT22;54673;52.262;6.830;2024-03-23T02:13:24;8.70;99.90
67870;DHT22;54673;52.262;6.830;2024-03-23T02:15:50;9.40;99.90
67870;DHT22;54673;52.262;6.830;2024-03-23T02:18:15;8.70;99.90
67870;DHT22;54673;52.262;6.830;2024-03-23T02:20:41;8.60;99.90
67870;DHT22;54673;52.262;6.830;2024-03-23T02:23:13;9.00;99.90
67870;DHT22;54673;52.262;6.830;2024-03-23T02:25:39;9.80;99.90
67870;DHT22;54673;52.262;6.830;2024-03-23T02:28:05;8.60;99.90
67870;DHT22;54673;52.262;6.830;2024-03-23T02:30:30;8.60;99.90
67870;DHT22;54673;52.262;6.830;2024-03-23T02:32:56;8.60;99.90
67870;DHT22;54673;52.262;6.830;2024-03-23T02:35:21;9.70;99.90
67870;DHT22;54673;52.262;6.830;2024-03-23T02:37:47;8.50;99.90
67870;DHT22;54673;52.262;6.830;2024-03-23T02:40:16;8.50;99.90
67870;DHT22;54673;52.262;6.830;2024-03-23T02:42:42;8.50;99.90
67870;DHT22;54673;52.262;6.830;2024-03-23T02:45:08;8.50;99.90
67870;DHT22;54673;52.262;6.830;2024-03-23T02:47:34;8.50;99.90
67870;DHT22;54673;52.262;6.830;2024-03-23T02:49:59;8.50;99.90
67870;DHT22;54673;52.262;6.830;2024-03-23T02:52:25;8.50;99.90
67870;DHT22;54673;52.262;6.830;2024-03-23T02:54:50;9.10;99.90
67870;DHT22;54673;52.262;6.830;2024-03-23T02:57:16;8.70;99.90
67870;DHT22;54673;52.262;6.830;2024-03-23T02:59:41;8.50;99.90
67870;DHT22;54673;52.262;6.830;2024-03-23T03:02:07;9.30;99.90
67870;DHT22;54673;52.262;6.830;2024-03-23T03:04:33;8.40;99.90
67870;DHT22;54673;52.262;6.830;2024-03-23T03:06:58;8.40;99.90
67870;DHT22;54673;52.262;6.830;2024-03-23T03:09:24;9.10;99.90
67870;DHT22;54673;52.262;6.830;2024-03-23T03:11:50;8.40;99.90
67870;DHT22;54673;52.262;6.830;2024-03-23T03:14:16;8.70;99.90
67870;DHT22;54673;52.262;6.830;2024-03-23T03:16:41;8.40;99.90
67870;DHT22;54673;52.262;6.830;2024-03-23T03:19:07;9.70;99.90
67870;DHT22;54673;52.262;6.830;2024-03-23T03:21:32;8.40;99.90
67870;DHT22;54673;52.262;6.830;2024-03-23T03:23:58;8.40;99.90
67870;DHT22;54673;52.262;6.830;2024-03-23T03:26:24;9.00;99.90
67870;DHT22;54673;52.262;6.830;2024-03-23T03:28:50;9.30;99.90
67870;DHT22;54673;52.262;6.830;2024-03-23T03:31:16;8.30;99.90
67870;DHT22;54673;52.262;6.830;2024-03-23T03:33:42;9.70;99.90
67870;DHT22;54673;52.262;6.830;2024-03-23T03:36:08;8.20;99.90
67870;DHT22;54673;52.262;6.830;2024-03-23T03:38:33;9.40;99.90
67870;DHT22;54673;52.262;6.830;2024-03-23T03:41:02;8.20;99.90
67870;DHT22;54673;52.262;6.830;2024-03-23T03:43:28;8.20;99.90
67870;DHT22;54673;52.262;6.830;2024-03-23T03:45:58;8.20;99.90
67870;DHT22;54673;52.262;6.830;2024-03-23T03:48:24;8.30;99.90
67870;DHT22;54673;52.262;6.830;2024-03-23T03:50:50;8.20;99.90
67870;DHT22;54673;52.262;6.830;2024-03-23T03:53:15;8.20;99.90
67870;DHT22;54673;52.262;6.830;2024-03-23T03:55:41;8.80;99.90
67870;DHT22;54673;52.262;6.830;2024-03-23T03:58:07;8.10;99.90
67870;DHT22;54673;52.262;6.830;2024-03-23T04:00:32;8.10;99.90
67870;DHT22;54673;52.262;6.830;2024-03-23T04:02:58;8.10;99.90
67870;DHT22;54673;52.262;6.830;2024-03-23T04:05:24;8.10;99.90
67870;DHT22;54673;52.262;6.830;2024-03-23T04:07:49;8.10;99.90
67870;DHT22;54673;52.262;6.830;2024-03-23T04:10:15;9.10;99.90
67870;DHT22;54673;52.262;6.830;2024-03-23T04:12:41;8.00;99.90
67870;DHT22;54673;52.262;6.830;2024-03-23T04:15:07;8.00;99.90
67870;DHT22;54673;52.262;6.830;2024-03-23T04:17:33;8.00;99.90
67870;DHT22;54673;52.262;6.830;2024-03-23T04:20:00;6.60;99.90
67870;DHT22;54673;52.262;6.830;2024-03-23T04:22:27;8.90;99.90
67870;DHT22;54673;52.262;6.830;2024-03-23T04:24:53;7.90;99.90
67870;DHT22;54673;52.262;6.830;2024-03-23T04:27:19;7.90;99.90
67870;DHT22;54673;52.262;6.830;2024-03-23T04:29:52;7.90;99.90
67870;DHT22;54673;52.262;6.830;2024-03-23T04:32:18;7.80;99.90
67870;DHT22;54673;52.262;6.830;2024-03-23T04:34:44;7.80;99.90
67870;DHT22;54673;52.262;6.830;2024-03-23T04:37:10;7.80;99.90
67870;DHT22;54673;52.262;6.830;2024-03-23T04:39:36;7.80;99.90
67870;DHT22;54673;52.262;6.830;2024-03-23T04:42:03;7.80;99.90
67870;DHT22;54673;52.262;6.830;2024-03-23T04:44:29;7.80;99.90
67870;DHT22;54673;52.262;6.830;2024-03-23T04:46:54;7.70;99.90
67870;DHT22;54673;52.262;6.830;2024-03-23T04:49:20;7.70;99.90
67870;DHT22;54673;52.262;6.830;2024-03-23T04:51:45;7.70;99.90
67870;DHT22;54673;52.262;6.830;2024-03-23T04:54:15;7.70;99.90
67870;DHT22;54673;52.262;6.830;2024-03-23T04:56:41;7.70;99.90
67870;DHT22;54673;52.262;6.830;2024-03-23T04:59:07;8.80;99.90
67870;DHT22;54673;52.262;6.830;2024-03-23T05:01:33;7.60;99.90
67870;DHT22;54673;52.262;6.830;2024-03-23T05:03:58;7.60;99.90
67870;DHT22;54673;52.262;6.830;2024-03-23T05:06:24;7.60;99.90
67870;DHT22;54673;52.262;6.830;2024-03-23T05:08:51;8.90;99.90
67870;DHT22;54673;52.262;6.830;2024-03-23T05:11:17;7.50;99.90
67870;DHT22;54673;52.262;6.830;2024-03-23T05:13:44;7.50;99.90
67870;DHT22;54673;52.262;6.830;2024-03-23T05:16:09;8.60;99.90
67870;DHT22;54673;52.262;6.830;2024-03-23T05:18:35;7.50;99.90
67870;DHT22;54673;52.262;6.830;2024-03-23T05:21:01;7.50;99.90
67870;DHT22;54673;52.262;6.830;2024-03-23T05:23:28;7.50;99.90
67870;DHT22;54673;52.262;6.830;2024-03-23T05:25:54;7.40;99.90
67870;DHT22;54673;52.262;6.830;2024-03-23T05:28:21;7.40;99.90
67870;DHT22;54673;52.262;6.830;2024-03-23T05:30:53;7.40;99.90
67870;DHT22;54673;52.262;6.830;2024-03-23T05:33:20;7.40;99.90
67870;DHT22;54673;52.262;6.830;2024-03-23T05:35:54;7.40;99.90
67870;DHT22;54673;52.262;6.830;2024-03-23T05:38:21;8.10;99.90
67870;DHT22;54673;52.262;6.830;2024-03-23T05:41:13;7.40;99.90
67870;DHT22;54673;52.262;6.830;2024-03-23T05:43:39;7.30;99.90
67870;DHT22;54673;52.262;6.830;2024-03-23T05:46:05;8.90;99.90
67870;DHT22;54673;52.262;6.830;2024-03-23T05:48:31;7.30;99.90
67870;DHT22;54673;52.262;6.830;2024-03-23T05:50:56;7.20;99.90
67870;DHT22;54673;52.262;6.830;2024-03-23T05:53:22;7.30;99.90
67870;DHT22;54673;52.262;6.830;2024-03-23T05:55:48;7.50;99.90
67870;DHT22;54673;52.262;6.830;2024-03-23T05:58:18;7.80;99.90
67870;DHT22;54673;52.262;6.830;2024-03-23T06:00:46;7.20;99.90
67870;DHT22;54673;52.262;6.830;2024-03-23T06:03:12;7.20;99.90
67870;DHT22;54673;52.262;6.830;2024-03-23T06:05:38;7.20;99.90
67870;DHT22;54673;52.262;6.830;2024-03-23T06:08:04;7.30;99.90
67870;DHT22;54673;52.262;6.830;2024-03-23T06:10:29;7.10;99.90
67870;DHT22;54673;52.262;6.830;2024-03-23T06:12:55;7.10;99.90
67870;DHT22;54673;52.262;6.830;2024-03-23T06:15:21;7.10;99.90
67870;DHT22;54673;52.262;6.830;2024-03-23T06:17:48;7.10;99.90
67870;DHT22;54673;52.262;6.830;2024-03-23T06:20:14;7.10;99.90
67870;DHT22;54673;52.262;6.830;2024-03-23T06:22:40;7.10;99.90
67870;DHT22;54673;52.262;6.830;2024-03-23T06:25:06;7.00;99.90
67870;DHT22;54673;52.262;6.830;2024-03-23T06:27:32;7.00;99.90
67870;DHT22;54673;52.262;6.830;2024-03-23T06:30:01;7.10;99.90
67870;DHT22;54673;52.262;6.830;2024-03-23T06:32:29;7.00;99.90
67870;DHT22;54673;52.262;6.830;2024-03-23T06:34:55;7.20;99.90
67870;DHT22;54673;52.262;6.830;2024-03-23T06:37:21;7.00;99.90
67870;DHT22;54673;52.262;6.830;2024-03-23T06:39:47;7.00;99.90
67870;DHT22;54673;52.262;6.830;2024-03-23T06:42:12;6.90;99.90
67870;DHT22;54673;52.262;6.830;2024-03-23T06:44:38;7.50;99.90
67870;DHT22;54673;52.262;6.830;2024-03-23T06:47:05;8.30;99.90
67870;DHT22;54673;52.262;6.830;2024-03-23T06:49:30;7.70;99.90
67870;DHT22;54673;52.262;6.830;2024-03-23T06:51:56;6.90;99.90
67870;DHT22;54673;52.262;6.830;2024-03-23T06:54:21;7.10;99.90
67870;DHT22;54673;52.262;6.830;2024-03-23T06:56:47;6.90;99.90
67870;DHT22;54673;52.262;6.830;2024-03-23T06:59:13;6.90;99.90
67870;DHT22;54673;52.262;6.830;2024-03-23T07:01:38;6.90;99.90
67870;DHT22;54673;52.262;6.830;2024-03-23T07:04:04;6.90;99.90
67870;DHT22;54673;52.262;6.830;2024-03-23T07:06:33;6.90;99.90
67870;DHT22;54673;52.262;6.830;2024-03-23T07:08:58;6.80;99.90
67870;DHT22;54673;52.262;6.830;2024-03-23T07:11:24;6.90;99.90
67870;DHT22;54673;52.262;6.830;2024-03-23T07:13:51;6.90;99.90
67870;DHT22;54673;52.262;6.830;2024-03-23T07:16:17;6.80;99.90
67870;DHT22;54673;52.262;6.830;2024-03-23T07:18:43;6.90;99.90
67870;DHT22;54673;52.262;6.830;2024-03-23T07:21:09;6.80;99.90
67870;DHT22;54673;52.262;6.830;2024-03-23T07:23:34;6.80;99.90
67870;DHT22;54673;52.262;6.830;2024-03-23T07:26:04;6.80;99.90
67870;DHT22;54673;52.262;6.830;2024-03-23T07:28:33;6.80;99.90
67870;DHT22;54673;52.262;6.830;2024-03-23T07:31:05;6.90;99.90
67870;DHT22;54673;52.262;6.830;2024-03-23T07:33:31;6.80;99.90
67870;DHT22;54673;52.262;6.830;2024-03-23T07:35:56;6.80;99.90
67870;DHT22;54673;52.262;6.830;2024-03-23T07:38:23;7.70;99.90
67870;DHT22;54673;52.262;6.830;2024-03-23T07:40:49;6.80;99.90
67870;DHT22;54673;52.262;6.830;2024-03-23T07:43:21;6.80;99.90
67870;DHT22;54673;52.262;6.830;2024-03-23T07:45:53;6.80;99.90
67870;DHT22;54673;52.262;6.830;2024-03-23T07:48:21;6.80;99.90
67870;DHT22;54673;52.262;6.830;2024-03-23T07:51:06;8.00;99.90
67870;DHT22;54673;52.262;6.830;2024-03-23T07:53:32;6.90;99.90
67870;DHT22;54673;52.262;6.830;2024-03-23T07:55:59;7.20;99.90
67870;DHT22;54673;52.262;6.830;2024-03-23T07:58:26;6.90;99.90
67870;DHT22;54673;52.262;6.830;2024-03-23T08:00:53;7.10;99.90
67870;DHT22;54673;52.262;6.830;2024-03-23T08:03:19;7.00;99.90
67870;DHT22;54673;52.262;6.830;2024-03-23T08:05:45;7.00;99.90
67870;DHT22;54673;52.262;6.830;2024-03-23T08:08:10;7.00;99.90
67870;DHT22;54673;52.262;6.830;2024-03-23T08:10:37;7.00;99.90
67870;DHT22;54673;52.262;6.830;2024-03-23T08:13:03;7.10;99.90
67870;DHT22;54673;52.262;6.830;2024-03-23T08:15:32;7.10;99.90
67870;DHT22;54673;52.262;6.830;2024-03-23T08:18:00;7.10;99.90
67870;DHT22;54673;52.262;6.830;2024-03-23T08:20:26;7.20;99.90
67870;DHT22;54673;52.262;6.830;2024-03-23T08:22:52;7.00;99.90
67870;DHT22;54673;52.262;6.830;2024-03-23T08:25:18;7.20;99.90
67870;DHT22;54673;52.262;6.830;2024-03-23T08:27:44;7.20;99.90
67870;DHT22;54673;52.262;6.830;2024-03-23T08:30:10;7.50;99.90
67870;DHT22;54673;52.262;6.830;2024-03-23T08:32:36;7.30;99.90
67870;DHT22;54673;52.262;6.830;2024-03-23T08:35:02;7.30;99.90
67870;DHT22;54673;52.262;6.830;2024-03-23T08:37:28;7.30;99.90
67870;DHT22;54673;52.262;6.830;2024-03-23T08:39:53;7.30;99.90
67870;DHT22;54673;52.262;6.830;2024-03-23T08:42:19;8.50;99.90
67870;DHT22;54673;52.262;6.830;2024-03-23T08:44:44;7.90;99.90
67870;DHT22;54673;52.262;6.830;2024-03-23T08:47:15;7.50;99.90
67870;DHT22;54673;52.262;6.830;2024-03-23T08:49:41;7.50;99.90
67870;DHT22;54673;52.262;6.830;2024-03-23T08:52:07;7.60;99.90
67870;DHT22;54673;52.262;6.830;2024-03-23T08:54:32;7.80;99.90
67870;DHT22;54673;52.262;6.830;2024-03-23T08:56:58;7.70;99.90
67870;DHT22;54673;52.262;6.830;2024-03-23T08:59:23;7.70;99.90
67870;DHT22;54673;52.262;6.830;2024-03-23T09:01:49;7.70;99.90
67870;DHT22;54673;52.262;6.830;2024-03-23T09:04:15;7.80;99.90
67870;DHT22;54673;52.262;6.830;2024-03-23T09:06:43;7.80;99.90
67870;DHT22;54673;52.262;6.830;2024-03-23T09:09:08;7.90;99.90
67870;DHT22;54673;52.262;6.830;2024-03-23T09:11:34;8.00;99.90
67870;DHT22;54673;52.262;6.830;2024-03-23T09:13:59;8.00;99.90
67870;DHT22;54673;52.262;6.830;2024-03-23T09:16:25;9.40;99.90
67870;DHT22;54673;52.262;6.830;2024-03-23T09:18:52;8.20;99.90
67870;DHT22;54673;52.262;6.830;2024-03-23T09:21:18;8.30;99.90
67870;DHT22;54673;52.262;6.830;2024-03-23T09:23:44;8.20;99.90
67870;DHT22;54673;52.262;6.830;2024-03-23T09:26:10;8.30;99.90
67870;DHT22;54673;52.262;6.830;2024-03-23T09:28:36;8.40;99.90
67870;DHT22;54673;52.262;6.830;2024-03-23T09:31:05;8.40;99.90
67870;DHT22;54673;52.262;6.830;2024-03-23T09:33:30;9.00;99.90
67870;DHT22;54673;52.262;6.830;2024-03-23T09:35:56;8.50;99.90
67870;DHT22;54673;52.262;6.830;2024-03-23T09:38:22;8.60;99.90
67870;DHT22;54673;52.262;6.830;2024-03-23T09:40:53;8.70;99.90
67870;DHT22;54673;52.262;6.830;2024-03-23T09:43:19;8.70;99.90
67870;DHT22;54673;52.262;6.830;2024-03-23T09:45:45;8.90;99.90
67870;DHT22;54673;52.262;6.830;2024-03-23T09:48:11;8.90;99.90
67870;DHT22;54673;52.262;6.830;2024-03-23T09:50:38;8.90;99.90
67870;DHT22;54673;52.262;6.830;2024-03-23T09:53:06;8.90;99.90
67870;DHT22;54673;52.262;6.830;2024-03-23T09:55:32;9.00;99.90
67870;DHT22;54673;52.262;6.830;2024-03-23T09:57:57;9.70;99.90
67870;DHT22;54673;52.262;6.830;2024-03-23T10:00:23;9.50;99.90
67870;DHT22;54673;52.262;6.830;2024-03-23T10:02:49;9.30;99.90
67870;DHT22;54673;52.262;6.830;2024-03-23T10:05:23;9.30;99.90
67870;DHT22;54673;52.262;6.830;2024-03-23T10:07:52;9.30;99.90
67870;DHT22;54673;52.262;6.830;2024-03-23T10:10:18;9.30;99.90
67870;DHT22;54673;52.262;6.830;2024-03-23T10:12:45;9.30;99.90
67870;DHT22;54673;52.262;6.830;2024-03-23T10:15:25;9.40;99.90
67870;DHT22;54673;52.262;6.830;2024-03-23T10:17:51;9.50;99.90
67870;DHT22;54673;52.262;6.830;2024-03-23T10:20:22;9.70;99.90
67870;DHT22;54673;52.262;6.830;2024-03-23T10:22:51;9.60;99.90
67870;DHT22;54673;52.262;6.830;2024-03-23T10:25:17;9.60;99.90
67870;DHT22;54673;52.262;6.830;2024-03-23T10:27:58;9.60;99.90
67870;DHT22;54673;52.262;6.830;2024-03-23T10:30:24;10.50;99.90
67870;DHT22;54673;52.262;6.830;2024-03-23T10:33:10;9.80;99.90
67870;DHT22;54673;52.262;6.830;2024-03-23T10:35:37;10.50;99.90
67870;DHT22;54673;52.262;6.830;2024-03-23T10:38:07;11.20;99.90
67870;DHT22;54673;52.262;6.830;2024-03-23T10:40:36;10.80;99.90
67870;DHT22;54673;52.262;6.830;2024-03-23T10:43:06;10.00;99.90
67870;DHT22;54673;52.262;6.830;2024-03-23T10:45:33;10.10;99.90
67870;DHT22;54673;52.262;6.830;2024-03-23T10:47:59;10.10;99.90
67870;DHT22;54673;52.262;6.830;2024-03-23T10:50:25;11.20;99.90
67870;DHT22;54673;52.262;6.830;2024-03-23T10:52:53;10.20;99.90
67870;DHT22;54673;52.262;6.830;2024-03-23T10:55:19;10.30;99.90
67870;DHT22;54673;52.262;6.830;2024-03-23T10:57:54;11.20;99.90
67870;DHT22;54673;52.262;6.830;2024-03-23T11:00:21;10.80;99.90
67870;DHT22;54673;52.262;6.830;2024-03-23T11:02:48;11.30;99.90
67870;DHT22;54673;52.262;6.830;2024-03-23T11:05:29;11.00;99.90
67870;DHT22;54673;52.262;6.830;2024-03-23T11:07:55;10.60;99.90
67870;DHT22;54673;52.262;6.830;2024-03-23T11:10:30;11.00;99.90
67870;DHT22;54673;52.262;6.830;2024-03-23T11:12:57;10.80;99.90
67870;DHT22;54673;52.262;6.830;2024-03-23T11:15:23;11.50;99.90
67870;DHT22;54673;52.262;6.830;2024-03-23T11:18:07;10.80;99.90
67870;DHT22;54673;52.262;6.830;2024-03-23T11:20:37;10.80;99.90
67870;DHT22;54673;52.262;6.830;2024-03-23T11:23:04;10.80;99.90
67870;DHT22;54673;52.262;6.830;2024-03-23T11:25:29;10.90;99.90
67870;DHT22;54673;52.262;6.830;2024-03-23T11:28:11;10.90;99.90
67870;DHT22;54673;52.262;6.830;2024-03-23T11:30:37;11.00;99.90
67870;DHT22;54673;52.262;6.830;2024-03-23T11:33:04;11.00;99.90
67870;DHT22;54673;52.262;6.830;2024-03-23T11:35:34;11.00;99.90
67870;DHT22;54673;52.262;6.830;2024-03-23T11:38:14;11.00;99.90
67870;DHT22;54673;52.262;6.830;2024-03-23T11:40:41;11.00;99.90
67870;DHT22;54673;52.262;6.830;2024-03-23T11:43:12;10.90;99.90
67870;DHT22;54673;52.262;6.830;2024-03-23T11:45:42;11.70;99.90
67870;DHT22;54673;52.262;6.830;2024-03-23T11:48:12;10.70;99.90
67870;DHT22;54673;52.262;6.830;2024-03-23T11:50:40;10.90;99.90
67870;DHT22;54673;52.262;6.830;2024-03-23T11:53:20;11.00;99.90
67870;DHT22;54673;52.262;6.830;2024-03-23T11:58:11;11.20;99.90
67870;DHT22;54673;52.262;6.830;2024-03-23T12:00:38;11.90;99.90
67870;DHT22;54673;52.262;6.830;2024-03-23T12:03:04;11.00;99.90
67870;DHT22;54673;52.262;6.830;2024-03-23T12:05:30;11.00;99.90
67870;DHT22;54673;52.262;6.830;2024-03-23T12:08:24;11.10;99.90
67870;DHT22;54673;52.262;6.830;2024-03-23T12:13:30;11.10;99.90
67870;DHT22;54673;52.262;6.830;2024-03-23T12:16:16;12.00;99.90
67870;DHT22;54673;52.262;6.830;2024-03-23T12:18:46;11.20;99.90
67870;DHT22;54673;52.262;6.830;2024-03-23T12:21:13;11.30;99.90
67870;DHT22;54673;52.262;6.830;2024-03-23T12:23:42;11.30;99.90
67870;DHT22;54673;52.262;6.830;2024-03-23T12:26:09;11.40;99.90
67870;DHT22;54673;52.262;6.830;2024-03-23T12:28:35;11.50;99.90
67870;DHT22;54673;52.262;6.830;2024-03-23T12:31:01;11.60;99.90
67870;DHT22;54673;52.262;6.830;2024-03-23T12:33:26;11.60;99.90
67870;DHT22;54673;52.262;6.830;2024-03-23T12:35:52;11.60;99.90
67870;DHT22;54673;52.262;6.830;2024-03-23T12:38:18;11.60;99.90
67870;DHT22;54673;52.262;6.830;2024-03-23T12:40:50;11.70;99.90
67870;DHT22;54673;52.262;6.830;2024-03-23T12:43:16;12.50;99.90
67870;DHT22;54673;52.262;6.830;2024-03-23T12:45:49;12.90;99.90
67870;DHT22;54673;52.262;6.830;2024-03-23T12:48:15;12.60;99.90
67870;DHT22;54673;52.262;6.830;2024-03-23T12:50:41;11.90;99.90
67870;DHT22;54673;52.262;6.830;2024-03-23T12:53:07;12.00;99.90
67870;DHT22;54673;52.262;6.830;2024-03-23T12:55:34;12.00;99.90
67870;DHT22;54673;52.262;6.830;2024-03-23T12:58:00;12.00;99.90
67870;DHT22;54673;52.262;6.830;2024-03-23T13:00:26;12.40;99.90
67870;DHT22;54673;52.262;6.830;2024-03-23T13:02:51;12.10;99.90
67870;DHT22;54673;52.262;6.830;2024-03-23T13:05:17;12.10;99.90
67870;DHT22;54673;52.262;6.830;2024-03-23T13:07:42;12.20;99.90
67870;DHT22;54673;52.262;6.830;2024-03-23T13:10:08;12.20;99.90
67870;DHT22;54673;52.262;6.830;2024-03-23T13:12:34;12.20;99.90
67870;DHT22;54673;52.262;6.830;2024-03-23T13:15:00;12.50;99.90
67870;DHT22;54673;52.262;6.830;2024-03-23T13:17:26;12.30;99.90
67870;DHT22;54673;52.262;6.830;2024-03-23T13:19:53;12.50;99.90
67870;DHT22;54673;52.262;6.830;2024-03-23T13:22:19;12.30;99.90
67870;DHT22;54673;52.262;6.830;2024-03-23T13:24:44;12.80;99.90
67870;DHT22;54673;52.262;6.830;2024-03-23T13:27:10;12.40;99.90
67870;DHT22;54673;52.262;6.830;2024-03-23T13:29:36;12.40;99.90
67870;DHT22;54673;52.262;6.830;2024-03-23T13:32:03;12.40;99.90
67870;DHT22;54673;52.262;6.830;2024-03-23T13:34:29;12.40;99.90
67870;DHT22;54673;52.262;6.830;2024-03-23T13:36:55;12.60;99.90
67870;DHT22;54673;52.262;6.830;2024-03-23T13:39:21;12.50;99.90
67870;DHT22;54673;52.262;6.830;2024-03-23T13:41:47;12.50;99.90
67870;DHT22;54673;52.262;6.830;2024-03-23T13:44:13;12.90;99.90
67870;DHT22;54673;52.262;6.830;2024-03-23T13:46:40;12.50;99.90
67870;DHT22;54673;52.262;6.830;2024-03-23T13:49:24;12.70;99.90
67870;DHT22;54673;52.262;6.830;2024-03-23T13:51:50;12.60;99.90
67870;DHT22;54673;52.262;6.830;2024-03-23T13:54:15;12.60;99.90
67870;DHT22;54673;52.262;6.830;2024-03-23T13:56:41;12.70;99.90
67870;DHT22;54673;52.262;6.830;2024-03-23T13:59:06;12.60;99.90
67870;DHT22;54673;52.262;6.830;2024-03-23T14:01:32;12.60;99.90
67870;DHT22;54673;52.262;6.830;2024-03-23T14:03:57;12.50;99.90
67870;DHT22;54673;52.262;6.830;2024-03-23T14:06:23;12.50;99.90
67870;DHT22;54673;52.262;6.830;2024-03-23T14:08:49;12.50;99.90
67870;DHT22;54673;52.262;6.830;2024-03-23T14:11:15;13.40;99.90
67870;DHT22;54673;52.262;6.830;2024-03-23T14:13:40;12.50;99.90
67870;DHT22;54673;52.262;6.830;2024-03-23T14:16:06;13.50;99.90
67870;DHT22;54673;52.262;6.830;2024-03-23T14:18:32;12.50;99.90
67870;DHT22;54673;52.262;6.830;2024-03-23T14:20:59;12.60;99.90
67870;DHT22;54673;52.262;6.830;2024-03-23T14:23:30;12.50;99.90
67870;DHT22;54673;52.262;6.830;2024-03-23T14:25:59;12.40;99.90
67870;DHT22;54673;52.262;6.830;2024-03-23T14:28:25;12.40;99.90
67870;DHT22;54673;52.262;6.830;2024-03-23T14:30:51;12.40;99.90
67870;DHT22;54673;52.262;6.830;2024-03-23T14:33:17;12.60;99.90
67870;DHT22;54673;52.262;6.830;2024-03-23T14:35:48;12.30;99.90
67870;DHT22;54673;52.262;6.830;2024-03-23T14:38:16;12.20;99.90
67870;DHT22;54673;52.262;6.830;2024-03-23T14:40:42;12.20;99.90
67870;DHT22;54673;52.262;6.830;2024-03-23T14:43:07;12.20;99.90
67870;DHT22;54673;52.262;6.830;2024-03-23T14:45:33;12.20;99.90
67870;DHT22;54673;52.262;6.830;2024-03-23T14:47:58;12.90;99.90
67870;DHT22;54673;52.262;6.830;2024-03-23T14:50:25;13.20;99.90
67870;DHT22;54673;52.262;6.830;2024-03-23T14:52:51;12.40;99.90
67870;DHT22;54673;52.262;6.830;2024-03-23T14:55:17;12.00;99.90
67870;DHT22;54673;52.262;6.830;2024-03-23T14:57:42;12.00;99.90
67870;DHT22;54673;52.262;6.830;2024-03-23T15:00:09;12.10;99.90
67870;DHT22;54673;52.262;6.830;2024-03-23T15:02:39;12.00;99.90
67870;DHT22;54673;52.262;6.830;2024-03-23T15:05:06;13.10;99.90
67870;DHT22;54673;52.262;6.830;2024-03-23T15:07:36;11.90;99.90
67870;DHT22;54673;52.262;6.830;2024-03-23T15:10:04;12.10;99.90
67870;DHT22;54673;52.262;6.830;2024-03-23T15:12:30;11.90;99.90
67870;DHT22;54673;52.262;6.830;2024-03-23T15:14:58;11.90;99.90
67870;DHT22;54673;52.262;6.830;2024-03-23T15:17:24;12.20;99.90
67870;DHT22;54673;52.262;6.830;2024-03-23T15:19:49;11.70;99.90
67870;DHT22;54673;52.262;6.830;2024-03-23T15:22:15;11.70;99.90
67870;DHT22;54673;52.262;6.830;2024-03-23T15:24:40;11.70;99.90
67870;DHT22;54673;52.262;6.830;2024-03-23T15:27:06;11.70;99.90
67870;DHT22;54673;52.262;6.830;2024-03-23T15:29:34;11.70;99.90
67870;DHT22;54673;52.262;6.830;2024-03-23T15:31:59;12.00;99.90
67870;DHT22;54673;52.262;6.830;2024-03-23T15:34:25;11.80;99.90
67870;DHT22;54673;52.262;6.830;2024-03-23T15:36:50;11.90;99.90
67870;DHT22;54673;52.262;6.830;2024-03-23T15:39:17;11.60;99.90
67870;DHT22;54673;52.262;6.830;2024-03-23T15:41:46;11.60;99.90
67870;DHT22;54673;52.262;6.830;2024-03-23T15:44:12;12.20;99.90
67870;DHT22;54673;52.262;6.830;2024-03-23T15:46:37;12.40;99.90
67870;DHT22;54673;52.262;6.830;2024-03-23T15:49:03;11.60;99.90
67870;DHT22;54673;52.262;6.830;2024-03-23T15:51:30;11.70;99.90
67870;DHT22;54673;52.262;6.830;2024-03-23T15:53:59;11.60;99.90
67870;DHT22;54673;52.262;6.830;2024-03-23T15:56:25;11.60;99.90
67870;DHT22;54673;52.262;6.830;2024-03-23T15:58:50;11.60;99.90
67870;DHT22;54673;52.262;6.830;2024-03-23T16:01:16;11.60;99.90
67870;DHT22;54673;52.262;6.830;2024-03-23T16:03:42;11.60;99.90
67870;DHT22;54673;52.262;6.830;2024-03-23T16:06:08;11.60;99.90
67870;DHT22;54673;52.262;6.830;2024-03-23T16:08:34;11.60;99.90
67870;DHT22;54673;52.262;6.830;2024-03-23T16:11:00;11.50;99.90
67870;DHT22;54673;52.262;6.830;2024-03-23T16:13:26;11.50;99.90
67870;DHT22;54673;52.262;6.830;2024-03-23T16:16:02;12.00;99.90
67870;DHT22;54673;52.262;6.830;2024-03-23T16:18:33;11.40;99.90
67870;DHT22;54673;52.262;6.830;2024-03-23T16:21:04;12.20;99.90
67870;DHT22;54673;52.262;6.830;2024-03-23T16:23:34;11.40;99.90
67870;DHT22;54673;52.262;6.830;2024-03-23T16:26:03;11.40;99.90
67870;DHT22;54673;52.262;6.830;2024-03-23T16:28:33;11.40;99.90
67870;DHT22;54673;52.262;6.830;2024-03-23T16:31:07;11.40;99.90
67870;DHT22;54673;52.262;6.830;2024-03-23T16:33:34;11.40;99.90
67870;DHT22;54673;52.262;6.830;2024-03-23T16:36:05;11.40;99.90
67870;DHT22;54673;52.262;6.830;2024-03-23T16:38:31;11.30;99.90